sensor_id;sensor_type;location;lat;lon;timestamp;pressure;altitude;pressure_sealevel;temperature;humidity
48792;BME280;34587;48.816;9.420;2022-11-15T00:02:04;98607.31;;;12.58;68.74
48792;BME280;34587;48.816;9.420;2022-11-15T00:04:29;98609.00;;;12.59;68.79
48792;BME280;34587;48.816;9.420;2022-11-15T00:06:55;98603.81;;;12.59;68.49
48792;BME280;34587;48.816;9.420;2022-11-15T00:09:20;98600.34;;;12.59;68.35
48792;BME280;34587;48.816;9.420;2022-11-15T00:11:45;98602.06;;;12.60;68.35
48792;BME280;34587;48.816;9.420;2022-11-15T00:14:11;98593.41;;;12.59;68.37
48792;BME280;34587;48.816;9.420;2022-11-15T00:16:36;98594.25;;;12.60;68.53
48792;BME280;34587;48.816;9.420;2022-11-15T00:19:02;98593.41;;;12.59;68.87
48792;BME280;34587;48.816;9.420;2022-11-15T00:21:27;98598.59;;;12.59;68.72
48792;BME280;34587;48.816;9.420;2022-11-15T00:23:52;98598.69;;;12.56;69.08
48792;BME280;34587;48.816;9.420;2022-11-15T00:26:18;98593.41;;;12.59;68.53
48792;BME280;34587;48.816;9.420;2022-11-15T00:28:43;98603.75;;;12.61;68.67
48792;BME280;34587;48.816;9.420;2022-11-15T00:31:12;98598.59;;;12.59;68.61
48792;BME280;34587;48.816;9.420;2022-11-15T00:33:37;98605.59;;;12.57;68.54
48792;BME280;34587;48.816;9.420;2022-11-15T00:36:07;98602.19;;;12.55;68.46
48792;BME280;34587;48.816;9.420;2022-11-15T00:38:35;98598.78;;;12.53;68.58
48792;BME280;34587;48.816;9.420;2022-11-15T00:41:01;98594.50;;;12.52;68.47
48792;BME280;34587;48.816;9.420;2022-11-15T00:43:27;98586.69;;;12.52;68.46
48792;BME280;34587;48.816;9.420;2022-11-15T00:45:52;98593.59;;;12.53;68.45
48792;BME280;34587;48.816;9.420;2022-11-15T00:48:18;98588.41;;;12.53;68.45
48792;BME280;34587;48.816;9.420;2022-11-15T00:50:43;98584.91;;;12.54;68.43
48792;BME280;34587;48.816;9.420;2022-11-15T00:53:08;98584.91;;;12.54;68.70
48792;BME280;34587;48.816;9.420;2022-11-15T00:55:34;98573.66;;;12.54;68.67
48792;BME280;34587;48.816;9.420;2022-11-15T00:57:59;98579.69;;;12.54;68.51
48792;BME280;34587;48.816;9.420;2022-11-15T05:17:00;98392.50;;;12.57;69.41
48792;BME280;34587;48.816;9.420;2022-11-15T05:19:25;98387.28;;;12.57;69.30
48792;BME280;34587;48.816;9.420;2022-11-15T05:21:50;98390.75;;;12.56;69.69
48792;BME280;34587;48.816;9.420;2022-11-15T05:24:16;98389.91;;;12.56;68.62
48792;BME280;34587;48.816;9.420;2022-11-15T05:26:41;98390.75;;;12.56;69.00
48792;BME280;34587;48.816;9.420;2022-11-15T05:29:09;98395.97;;;12.56;68.81
48792;BME280;34587;48.816;9.420;2022-11-15T05:31:39;98392.50;;;12.57;69.01
48792;BME280;34587;48.816;9.420;2022-11-15T05:34:05;98395.97;;;12.56;69.03
48792;BME280;34587;48.816;9.420;2022-11-15T05:36:31;98394.28;;;12.55;69.00
48792;BME280;34587;48.816;9.420;2022-11-15T05:38:58;98387.31;;;12.56;69.27
48792;BME280;34587;48.816;9.420;2022-11-15T05:41:27;98395.97;;;12.56;69.45
48792;BME280;34587;48.816;9.420;2022-11-15T05:43:54;98392.50;;;12.57;69.44
48792;BME280;34587;48.816;9.420;2022-11-15T05:46:20;98382.09;;;12.57;69.49
48792;BME280;34587;48.816;9.420;2022-11-15T05:48:48;98384.69;;;12.57;69.14
48792;BME280;34587;48.816;9.420;2022-11-15T05:51:15;98391.59;;;12.58;69.53
48792;BME280;34587;48.816;9.420;2022-11-15T05:53:42;98382.09;;;12.57;69.79
48792;BME280;34587;48.816;9.420;2022-11-15T05:56:08;98377.75;;;12.58;69.52
48792;BME280;34587;48.816;9.420;2022-11-15T05:58:34;98378.59;;;12.58;69.35
48792;BME280;34587;48.816;9.420;2022-11-15T06:01:00;98373.41;;;12.58;69.19
48792;BME280;34587;48.816;9.420;2022-11-15T06:03:25;98371.69;;;12.57;69.29
48792;BME280;34587;48.816;9.420;2022-11-15T06:05:50;98372.53;;;12.58;68.81
48792;BME280;34587;48.816;9.420;2022-11-15T06:08:16;98377.75;;;12.58;69.05
48792;BME280;34587;48.816;9.420;2022-11-15T06:10:41;98373.41;;;12.58;69.37
48792;BME280;34587;48.816;9.420;2022-11-15T06:13:06;98371.69;;;12.57;69.40
48792;BME280;34587;48.816;9.420;2022-11-15T06:15:32;98378.59;;;12.58;69.24
48792;BME280;34587;48.816;9.420;2022-11-15T06:17:59;98378.59;;;12.58;69.10
48792;BME280;34587;48.816;9.420;2022-11-15T06:20:26;98373.41;;;12.58;68.74
48792;BME280;34587;48.816;9.420;2022-11-15T06:23:03;98382.09;;;12.57;68.80
48792;BME280;34587;48.816;9.420;2022-11-15T06:25:30;98388.13;;;12.58;68.45
48792;BME280;34587;48.816;9.420;2022-11-15T06:27:57;98387.28;;;12.57;68.75
48792;BME280;34587;48.816;9.420;2022-11-15T06:30:24;98385.56;;;12.56;68.62
48792;BME280;34587;48.816;9.420;2022-11-15T06:32:50;98380.38;;;12.56;68.69
48792;BME280;34587;48.816;9.420;2022-11-15T06:35:16;98379.53;;;12.56;68.46
48792;BME280;34587;48.816;9.420;2022-11-15T06:37:42;98390.75;;;12.56;68.66
48792;BME280;34587;48.816;9.420;2022-11-15T06:40:08;98377.78;;;12.56;68.52
48792;BME280;34587;48.816;9.420;2022-11-15T06:42:34;98385.56;;;12.56;68.25
48792;BME280;34587;48.816;9.420;2022-11-15T06:44:59;98375.16;;;12.56;68.79
48792;BME280;34587;48.816;9.420;2022-11-15T06:47:25;98382.97;;;12.56;68.49
48792;BME280;34587;48.816;9.420;2022-11-15T06:49:50;98383.88;;;12.55;68.36
48792;BME280;34587;48.816;9.420;2022-11-15T06:52:15;98385.56;;;12.56;68.49
48792;BME280;34587;48.816;9.420;2022-11-15T06:54:43;98380.38;;;12.56;68.30
48792;BME280;34587;48.816;9.420;2022-11-15T06:57:08;98383.88;;;12.55;68.15
48792;BME280;34587;48.816;9.420;2022-11-15T06:59:34;98380.44;;;12.55;68.31
48792;BME280;34587;48.816;9.420;2022-11-15T07:01:59;98385.56;;;12.56;68.23
48792;BME280;34587;48.816;9.420;2022-11-15T07:04:24;98383.88;;;12.55;68.03
48792;BME280;34587;48.816;9.420;2022-11-15T07:06:49;98387.38;;;12.54;68.30
48792;BME280;34587;48.816;9.420;2022-11-15T07:09:15;98385.69;;;12.53;68.24
48792;BME280;34587;48.816;9.420;2022-11-15T07:11:40;98381.34;;;12.54;68.55
48792;BME280;34587;48.816;9.420;2022-11-15T07:14:05;98388.22;;;12.55;67.99
48792;BME280;34587;48.816;9.420;2022-11-15T07:16:30;98381.34;;;12.54;68.24
48792;BME280;34587;48.816;9.420;2022-11-15T07:18:56;98385.69;;;12.53;68.26
48792;BME280;34587;48.816;9.420;2022-11-15T07:21:21;98384.84;;;12.53;67.77
48792;BME280;34587;48.816;9.420;2022-11-15T07:23:47;98379.66;;;12.53;68.18
48792;BME280;34587;48.816;9.420;2022-11-15T07:26:12;98380.50;;;12.53;68.34
48792;BME280;34587;48.816;9.420;2022-11-15T07:28:37;98377.88;;;12.53;68.49
48792;BME280;34587;48.816;9.420;2022-11-15T07:31:07;98384.00;;;12.52;68.24
48792;BME280;34587;48.816;9.420;2022-11-15T07:33:33;98389.19;;;12.52;68.58
48792;BME280;34587;48.816;9.420;2022-11-15T07:36:04;98384.84;;;12.53;68.37
48792;BME280;34587;48.816;9.420;2022-11-15T07:38:30;98390.03;;;12.53;68.01
48792;BME280;34587;48.816;9.420;2022-11-15T07:41:00;98397.78;;;12.54;68.27
48792;BME280;34587;48.816;9.420;2022-11-15T07:43:26;98390.88;;;12.53;68.09
48792;BME280;34587;48.816;9.420;2022-11-15T07:45:55;98390.88;;;12.53;68.13
48792;BME280;34587;48.816;9.420;2022-11-15T07:48:21;98384.00;;;12.52;68.22
48792;BME280;34587;48.816;9.420;2022-11-15T07:50:46;98383.13;;;12.52;68.39
48792;BME280;34587;48.816;9.420;2022-11-15T07:53:11;98382.28;;;12.51;68.28
48792;BME280;34587;48.816;9.420;2022-11-15T07:55:37;98384.00;;;12.52;68.01
48792;BME280;34587;48.816;9.420;2022-11-15T07:58:04;98369.25;;;12.53;68.21
48792;BME280;34587;48.816;9.420;2022-11-15T08:00:30;98372.69;;;12.53;68.85
48792;BME280;34587;48.816;9.420;2022-11-15T08:03:07;98364.06;;;12.53;68.94
48792;BME280;34587;48.816;9.420;2022-11-15T08:05:33;98364.91;;;12.53;69.06
48792;BME280;34587;48.816;9.420;2022-11-15T08:07:59;98354.50;;;12.53;69.19
48792;BME280;34587;48.816;9.420;2022-11-15T08:10:25;98357.09;;;12.53;68.96
48792;BME280;34587;48.816;9.420;2022-11-15T08:13:01;98353.59;;;12.54;69.13
48792;BME280;34587;48.816;9.420;2022-11-15T08:15:27;98356.19;;;12.54;69.48
48792;BME280;34587;48.816;9.420;2022-11-15T08:17:56;98352.69;;;12.55;69.06
48792;BME280;34587;48.816;9.420;2022-11-15T08:20:22;98355.28;;;12.55;68.98
48792;BME280;34587;48.816;9.420;2022-11-15T08:22:48;98354.38;;;12.56;69.14
48792;BME280;34587;48.816;9.420;2022-11-15T08:25:13;98350.09;;;12.55;69.25
48792;BME280;34587;48.816;9.420;2022-11-15T08:27:39;98353.59;;;12.54;68.58
48792;BME280;34587;48.816;9.420;2022-11-15T08:30:04;98347.50;;;12.55;69.02
48792;BME280;34587;48.816;9.420;2022-11-15T08:32:31;98344.91;;;12.55;68.71
48792;BME280;34587;48.816;9.420;2022-11-15T08:34:56;98344.91;;;12.55;69.04
48792;BME280;34587;48.816;9.420;2022-11-15T08:37:21;98346.66;;;12.55;69.31
48792;BME280;34587;48.816;9.420;2022-11-15T08:39:46;98335.41;;;12.54;69.32
48792;BME280;34587;48.816;9.420;2022-11-15T08:42:12;98334.50;;;12.55;69.60
48792;BME280;34587;48.816;9.420;2022-11-15T08:44:38;98325.00;;;12.54;69.25
48792;BME280;34587;48.816;9.420;2022-11-15T08:47:03;98328.41;;;12.56;69.06
48792;BME280;34587;48.816;9.420;2022-11-15T08:49:28;98327.53;;;12.56;69.37
48792;BME280;34587;48.816;9.420;2022-11-15T08:51:54;98324.94;;;12.56;69.43
48792;BME280;34587;48.816;9.420;2022-11-15T08:54:19;98322.41;;;12.54;69.32
48792;BME280;34587;48.816;9.420;2022-11-15T08:56:44;98319.81;;;12.54;69.49
48792;BME280;34587;48.816;9.420;2022-11-15T08:59:10;98323.19;;;12.56;69.47
48792;BME280;34587;48.816;9.420;2022-11-15T09:01:35;98323.19;;;12.56;69.20
48792;BME280;34587;48.816;9.420;2022-11-15T09:04:00;98324.03;;;12.57;69.26
48792;BME280;34587;48.816;9.420;2022-11-15T09:06:26;98311.09;;;12.55;69.21
48792;BME280;34587;48.816;9.420;2022-11-15T09:08:51;98318.00;;;12.56;69.58
48792;BME280;34587;48.816;9.420;2022-11-15T09:11:16;98314.53;;;12.57;69.09
48792;BME280;34587;48.816;9.420;2022-11-15T09:13:45;98317.16;;;12.56;69.01
48792;BME280;34587;48.816;9.420;2022-11-15T09:16:10;98298.94;;;12.57;69.22
48792;BME280;34587;48.816;9.420;2022-11-15T09:18:37;98301.53;;;12.57;69.09
48792;BME280;34587;48.816;9.420;2022-11-15T09:21:03;98306.72;;;12.57;69.46
48792;BME280;34587;48.816;9.420;2022-11-15T09:23:29;98299.81;;;12.56;69.21
48792;BME280;34587;48.816;9.420;2022-11-15T09:26:02;98297.22;;;12.56;68.84
48792;BME280;34587;48.816;9.420;2022-11-15T09:28:28;98292.00;;;12.56;69.27
48792;BME280;34587;48.816;9.420;2022-11-15T09:31:03;98292.00;;;12.56;68.99
48792;BME280;34587;48.816;9.420;2022-11-15T09:33:29;98292.00;;;12.56;69.07
48792;BME280;34587;48.816;9.420;2022-11-15T09:35:59;98290.31;;;12.55;69.38
48792;BME280;34587;48.816;9.420;2022-11-15T09:38:26;98296.38;;;12.56;69.19
48792;BME280;34587;48.816;9.420;2022-11-15T09:40:57;98294.66;;;12.55;69.80
48792;BME280;34587;48.816;9.420;2022-11-15T09:43:45;98295.50;;;12.55;69.38
48792;BME280;34587;48.816;9.420;2022-11-15T09:48:55;98278.13;;;12.57;69.01
48792;BME280;34587;48.816;9.420;2022-11-15T09:51:36;98291.16;;;12.56;69.04
48792;BME280;34587;48.816;9.420;2022-11-15T09:54:19;98279.00;;;12.56;69.21
48792;BME280;34587;48.816;9.420;2022-11-15T09:56:47;98280.69;;;12.59;68.88
48792;BME280;34587;48.816;9.420;2022-11-15T10:01:57;98278.13;;;12.57;69.11
48792;BME280;34587;48.816;9.420;2022-11-15T10:04:25;98276.41;;;12.56;69.27
48792;BME280;34587;48.816;9.420;2022-11-15T10:07:13;98263.38;;;12.58;69.06
48792;BME280;34587;48.816;9.420;2022-11-15T10:10:22;98265.19;;;12.56;69.24
48792;BME280;34587;48.816;9.420;2022-11-15T10:12:28;98254.78;;;12.56;69.40
48792;BME280;34587;48.816;9.420;2022-11-15T10:15:01;98254.78;;;12.56;69.14
48792;BME280;34587;48.816;9.420;2022-11-15T10:20:23;98256.53;;;12.55;69.38
48792;BME280;34587;48.816;9.420;2022-11-15T10:23:07;98254.78;;;12.56;69.69
48792;BME280;34587;48.816;9.420;2022-11-15T10:25:35;98251.34;;;12.55;69.21
48792;BME280;34587;48.816;9.420;2022-11-15T10:28:29;98254.75;;;12.57;69.14
48792;BME280;34587;48.816;9.420;2022-11-15T10:30:56;98248.66;;;12.58;68.91
48792;BME280;34587;48.816;9.420;2022-11-15T10:33:36;98233.91;;;12.59;68.86
48792;BME280;34587;48.816;9.420;2022-11-15T10:38:33;98237.41;;;12.58;69.19
48792;BME280;34587;48.816;9.420;2022-11-15T10:41:07;98230.44;;;12.58;69.30
48792;BME280;34587;48.816;9.420;2022-11-15T10:43:32;98229.53;;;12.59;69.18
48792;BME280;34587;48.816;9.420;2022-11-15T10:46:18;98220.00;;;12.60;69.12
48792;BME280;34587;48.816;9.420;2022-11-15T10:48:44;98214.78;;;12.60;69.12
48792;BME280;34587;48.816;9.420;2022-11-15T10:51:20;98207.91;;;12.59;69.12
48792;BME280;34587;48.816;9.420;2022-11-15T10:53:47;98207.84;;;12.60;69.01
48792;BME280;34587;48.816;9.420;2022-11-15T10:56:14;98204.41;;;12.60;68.96
48792;BME280;34587;48.816;9.420;2022-11-15T10:58:44;98203.56;;;12.59;69.24
48792;BME280;34587;48.816;9.420;2022-11-15T11:01:20;98191.47;;;12.58;69.35
48792;BME280;34587;48.816;9.420;2022-11-15T11:04:07;98192.31;;;12.59;69.79
48792;BME280;34587;48.816;9.420;2022-11-15T11:09:32;98186.22;;;12.60;69.23
48792;BME280;34587;48.816;9.420;2022-11-15T11:11:58;98193.16;;;12.59;69.49
48792;BME280;34587;48.816;9.420;2022-11-15T11:14:29;98196.53;;;12.61;69.23
48792;BME280;34587;48.816;9.420;2022-11-15T11:17:04;98192.25;;;12.60;69.02
48792;BME280;34587;48.816;9.420;2022-11-15T11:19:44;98189.66;;;12.60;69.35
48792;BME280;34587;48.816;9.420;2022-11-15T11:22:32;98187.06;;;12.60;69.26
48792;BME280;34587;48.816;9.420;2022-11-15T11:27:43;98187.00;;;12.62;68.93
48792;BME280;34587;48.816;9.420;2022-11-15T11:30:17;98187.88;;;12.63;69.40
48792;BME280;34587;48.816;9.420;2022-11-15T11:40:40;98182.66;;;12.63;69.33
48792;BME280;34587;48.816;9.420;2022-11-15T11:49:49;98174.03;;;12.62;69.17
48792;BME280;34587;48.816;9.420;2022-11-15T11:54:47;98166.16;;;12.64;69.08
48792;BME280;34587;48.816;9.420;2022-11-15T11:57:38;98160.13;;;12.63;69.39
48792;BME280;34587;48.816;9.420;2022-11-15T12:00:15;98153.16;;;12.64;69.21
48792;BME280;34587;48.816;9.420;2022-11-15T12:02:47;98157.53;;;12.63;69.22
48792;BME280;34587;48.816;9.420;2022-11-15T12:05:37;98147.97;;;12.64;69.57
48792;BME280;34587;48.816;9.420;2022-11-15T12:08:23;98143.63;;;12.64;68.97
48792;BME280;34587;48.816;9.420;2022-11-15T12:10:57;98139.25;;;12.65;69.42
48792;BME280;34587;48.816;9.420;2022-11-15T12:13:26;98131.47;;;12.65;69.52
48792;BME280;34587;48.816;9.420;2022-11-15T12:16:17;98128.03;;;12.64;69.38
48792;BME280;34587;48.816;9.420;2022-11-15T12:18:44;98127.19;;;12.64;69.06
48792;BME280;34587;48.816;9.420;2022-11-15T12:21:47;98121.06;;;12.65;69.29
48792;BME280;34587;48.816;9.420;2022-11-15T12:24:26;98118.47;;;12.65;69.34
48792;BME280;34587;48.816;9.420;2022-11-15T12:27:04;98117.56;;;12.66;69.39
48792;BME280;34587;48.816;9.420;2022-11-15T12:29:37;98119.31;;;12.65;69.35
48792;BME280;34587;48.816;9.420;2022-11-15T12:32:04;98119.31;;;12.65;69.13
48792;BME280;34587;48.816;9.420;2022-11-15T12:34:40;98114.97;;;12.66;69.21
48792;BME280;34587;48.816;9.420;2022-11-15T12:37:59;98121.00;;;12.66;69.40
48792;BME280;34587;48.816;9.420;2022-11-15T12:40:30;98116.66;;;12.67;69.05
48792;BME280;34587;48.816;9.420;2022-11-15T12:43:03;98114.03;;;12.67;69.58
48792;BME280;34587;48.816;9.420;2022-11-15T13:01:08;98097.56;;;12.68;69.62
48792;BME280;34587;48.816;9.420;2022-11-15T13:03:34;98100.09;;;12.69;69.31
48792;BME280;34587;48.816;9.420;2022-11-15T13:06:02;98099.25;;;12.69;69.56
48792;BME280;34587;48.816;9.420;2022-11-15T13:08:43;98100.94;;;12.70;69.31
48792;BME280;34587;48.816;9.420;2022-11-15T13:11:48;98096.66;;;12.69;69.53
48792;BME280;34587;48.816;9.420;2022-11-15T13:17:23;98087.09;;;12.69;69.32
48792;BME280;34587;48.816;9.420;2022-11-15T13:23:10;98083.66;;;12.69;69.18
48792;BME280;34587;48.816;9.420;2022-11-15T13:25:55;98076.66;;;12.71;69.38
48792;BME280;34587;48.816;9.420;2022-11-15T13:28:39;98073.28;;;12.69;69.28
48792;BME280;34587;48.816;9.420;2022-11-15T13:31:30;98063.72;;;12.69;69.55
48792;BME280;34587;48.816;9.420;2022-11-15T13:34:03;98064.56;;;12.70;69.38
48792;BME280;34587;48.816;9.420;2022-11-15T13:36:38;98054.16;;;12.70;69.33
48792;BME280;34587;48.816;9.420;2022-11-15T13:39:06;98061.06;;;12.71;69.45
48792;BME280;34587;48.816;9.420;2022-11-15T13:41:50;98054.16;;;12.70;69.69
48792;BME280;34587;48.816;9.420;2022-11-15T13:44:27;98045.44;;;12.71;69.56
48792;BME280;34587;48.816;9.420;2022-11-15T13:47:06;98043.75;;;12.70;69.43
48792;BME280;34587;48.816;9.420;2022-11-15T13:49:33;98040.25;;;12.71;69.53
48792;BME280;34587;48.816;9.420;2022-11-15T13:52:00;98041.97;;;12.72;69.13
48792;BME280;34587;48.816;9.420;2022-11-15T13:54:30;98035.84;;;12.73;69.09
48792;BME280;34587;48.816;9.420;2022-11-15T13:56:57;98035.06;;;12.71;69.24
48792;BME280;34587;48.816;9.420;2022-11-15T13:59:31;98039.38;;;12.72;69.07
48792;BME280;34587;48.816;9.420;2022-11-15T14:02:11;98031.56;;;12.72;69.51
48792;BME280;34587;48.816;9.420;2022-11-15T14:04:39;98024.63;;;12.72;69.51
48792;BME280;34587;48.816;9.420;2022-11-15T14:07:18;98020.25;;;12.73;69.45
48792;BME280;34587;48.816;9.420;2022-11-15T14:09:44;98022.88;;;12.73;69.49
48792;BME280;34587;48.816;9.420;2022-11-15T14:12:50;98021.19;;;12.72;69.67
48792;BME280;34587;48.816;9.420;2022-11-15T14:17:54;98003.75;;;12.74;69.54
48792;BME280;34587;48.816;9.420;2022-11-15T14:20:38;97995.03;;;12.75;69.58
48792;BME280;34587;48.816;9.420;2022-11-15T14:23:26;97992.44;;;12.75;69.54
48792;BME280;34587;48.816;9.420;2022-11-15T14:25:58;97982.97;;;12.74;69.32
48792;BME280;34587;48.816;9.420;2022-11-15T14:30:50;97977.75;;;12.74;69.52
48792;BME280;34587;48.816;9.420;2022-11-15T14:33:32;97980.28;;;12.75;69.85
48792;BME280;34587;48.816;9.420;2022-11-15T14:36:11;97975.09;;;12.75;69.87
48792;BME280;34587;48.816;9.420;2022-11-15T14:38:37;97965.53;;;12.76;70.01
48792;BME280;34587;48.816;9.420;2022-11-15T14:41:03;97962.94;;;12.76;70.09
48792;BME280;34587;48.816;9.420;2022-11-15T14:43:28;97973.34;;;12.76;70.07
48792;BME280;34587;48.816;9.420;2022-11-15T14:45:53;97975.94;;;12.76;70.26
48792;BME280;34587;48.816;9.420;2022-11-15T14:48:19;97956.91;;;12.75;70.41
48792;BME280;34587;48.816;9.420;2022-11-15T14:50:44;97956.84;;;12.77;70.05
48792;BME280;34587;48.816;9.420;2022-11-15T14:53:12;97957.69;;;12.77;70.75
48792;BME280;34587;48.816;9.420;2022-11-15T14:55:38;97956.84;;;12.77;70.87
48792;BME280;34587;48.816;9.420;2022-11-15T14:58:05;97956.84;;;12.77;70.85
48792;BME280;34587;48.816;9.420;2022-11-15T15:00:33;97956.84;;;12.77;70.79
48792;BME280;34587;48.816;9.420;2022-11-15T15:02:58;97951.66;;;12.77;70.44
48792;BME280;34587;48.816;9.420;2022-11-15T15:05:43;97949.06;;;12.77;70.56
48792;BME280;34587;48.816;9.420;2022-11-15T15:08:09;97948.16;;;12.78;70.63
48792;BME280;34587;48.816;9.420;2022-11-15T15:10:38;97937.75;;;12.78;71.03
48792;BME280;34587;48.816;9.420;2022-11-15T15:13:05;97933.38;;;12.78;71.43
48792;BME280;34587;48.816;9.420;2022-11-15T15:15:37;97932.53;;;12.78;71.22
48792;BME280;34587;48.816;9.420;2022-11-15T15:18:04;97929.94;;;12.78;70.63
48792;BME280;34587;48.816;9.420;2022-11-15T15:20:33;97932.53;;;12.78;70.41
48792;BME280;34587;48.816;9.420;2022-11-15T15:22:58;97916.94;;;12.78;70.72
48792;BME280;34587;48.816;9.420;2022-11-15T15:25:27;97913.44;;;12.79;71.29
48792;BME280;34587;48.816;9.420;2022-11-15T15:27:54;97908.25;;;12.79;70.75
48792;BME280;34587;48.816;9.420;2022-11-15T15:30:20;97903.03;;;12.79;71.23
48792;BME280;34587;48.816;9.420;2022-11-15T15:32:46;97908.25;;;12.79;71.71
48792;BME280;34587;48.816;9.420;2022-11-15T15:35:13;97908.25;;;12.79;70.99
48792;BME280;34587;48.816;9.420;2022-11-15T15:37:39;97905.63;;;12.79;71.11
48792;BME280;34587;48.816;9.420;2022-11-15T15:40:12;97906.41;;;12.81;71.32
48792;BME280;34587;48.816;9.420;2022-11-15T15:42:38;97897.72;;;12.82;71.79
48792;BME280;34587;48.816;9.420;2022-11-15T15:45:03;97896.00;;;12.81;71.74
48792;BME280;34587;48.816;9.420;2022-11-15T15:47:29;97895.16;;;12.80;72.01
48792;BME280;34587;48.816;9.420;2022-11-15T15:49:54;97896.00;;;12.81;71.81
48792;BME280;34587;48.816;9.420;2022-11-15T15:52:19;97886.47;;;12.81;71.92
48792;BME280;34587;48.816;9.420;2022-11-15T15:54:45;97889.84;;;12.83;72.59
48792;BME280;34587;48.816;9.420;2022-11-15T15:57:13;97882.06;;;12.83;72.78
48792;BME280;34587;48.816;9.420;2022-11-15T15:59:39;97877.69;;;12.84;72.63
48792;BME280;34587;48.816;9.420;2022-11-15T16:02:04;97876.94;;;12.82;72.11
48792;BME280;34587;48.816;9.420;2022-11-15T16:04:30;97863.94;;;12.82;71.94
48792;BME280;34587;48.816;9.420;2022-11-15T16:06:59;97868.22;;;12.83;72.37
48792;BME280;34587;48.816;9.420;2022-11-15T16:09:25;97865.69;;;12.81;71.99
48792;BME280;34587;48.816;9.420;2022-11-15T16:12:09;97863.97;;;12.80;71.77
48792;BME280;34587;48.816;9.420;2022-11-15T16:14:34;97858.78;;;12.80;71.72
48792;BME280;34587;48.816;9.420;2022-11-15T16:17:01;97865.63;;;12.83;71.59
48792;BME280;34587;48.816;9.420;2022-11-15T16:19:26;97861.34;;;12.82;71.28
48792;BME280;34587;48.816;9.420;2022-11-15T16:21:51;97856.97;;;12.82;71.88
48792;BME280;34587;48.816;9.420;2022-11-15T16:24:20;97852.69;;;12.81;71.62
48792;BME280;34587;48.816;9.420;2022-11-15T16:26:47;97842.22;;;12.83;72.32
48792;BME280;34587;48.816;9.420;2022-11-15T16:29:13;97838.69;;;12.84;72.15
48792;BME280;34587;48.816;9.420;2022-11-15T16:31:39;97837.00;;;12.83;72.03
48792;BME280;34587;48.816;9.420;2022-11-15T16:34:04;97835.19;;;12.85;71.79
48792;BME280;34587;48.816;9.420;2022-11-15T16:36:32;97836.09;;;12.84;71.99
48792;BME280;34587;48.816;9.420;2022-11-15T16:38:59;97835.97;;;12.87;72.36
48792;BME280;34587;48.816;9.420;2022-11-15T16:41:25;97838.59;;;12.87;72.51
48792;BME280;34587;48.816;9.420;2022-11-15T16:43:51;97829.94;;;12.86;72.61
48792;BME280;34587;48.816;9.420;2022-11-15T16:46:18;97831.66;;;12.86;72.02
48792;BME280;34587;48.816;9.420;2022-11-15T16:48:44;97832.59;;;12.85;72.13
48792;BME280;34587;48.816;9.420;2022-11-15T16:51:10;97824.75;;;12.86;71.93
48792;BME280;34587;48.816;9.420;2022-11-15T16:53:35;97815.19;;;12.87;71.92
48792;BME280;34587;48.816;9.420;2022-11-15T16:56:01;97814.38;;;12.85;71.69
48792;BME280;34587;48.816;9.420;2022-11-15T16:58:26;97814.38;;;12.85;71.56
48792;BME280;34587;48.816;9.420;2022-11-15T17:00:53;97819.59;;;12.85;71.17
48792;BME280;34587;48.816;9.420;2022-11-15T17:03:19;97811.59;;;12.90;70.99
48792;BME280;34587;48.816;9.420;2022-11-15T17:05:45;97805.56;;;12.89;71.19
48792;BME280;34587;48.816;9.420;2022-11-15T17:08:10;97808.06;;;12.91;71.71
48792;BME280;34587;48.816;9.420;2022-11-15T17:10:38;97802.03;;;12.90;72.04
48792;BME280;34587;48.816;9.420;2022-11-15T17:13:04;97807.22;;;12.90;71.94
48792;BME280;34587;48.816;9.420;2022-11-15T17:15:29;97800.34;;;12.89;71.32
48792;BME280;34587;48.816;9.420;2022-11-15T17:17:55;97803.88;;;12.88;71.54
48792;BME280;34587;48.816;9.420;2022-11-15T17:20:23;97792.56;;;12.89;71.82
48792;BME280;34587;48.816;9.420;2022-11-15T17:22:49;97800.34;;;12.89;71.70
48792;BME280;34587;48.816;9.420;2022-11-15T17:25:14;97794.38;;;12.87;71.38
48792;BME280;34587;48.816;9.420;2022-11-15T17:27:40;97793.47;;;12.88;71.58
48792;BME280;34587;48.816;9.420;2022-11-15T17:30:06;97784.88;;;12.86;71.95
48792;BME280;34587;48.816;9.420;2022-11-15T17:32:34;97787.44;;;12.88;71.81
48792;BME280;34587;48.816;9.420;2022-11-15T17:35:00;97784.81;;;12.88;71.77
48792;BME280;34587;48.816;9.420;2022-11-15T17:37:25;97773.44;;;12.90;71.80
48792;BME280;34587;48.816;9.420;2022-11-15T17:39:50;97773.38;;;12.92;71.78
48792;BME280;34587;48.816;9.420;2022-11-15T17:42:16;97769.94;;;12.91;71.76
48792;BME280;34587;48.816;9.420;2022-11-15T17:44:41;97776.03;;;12.90;71.72
48792;BME280;34587;48.816;9.420;2022-11-15T17:47:06;97769.16;;;12.89;71.73
48792;BME280;34587;48.816;9.420;2022-11-15T17:49:32;97773.44;;;12.90;71.70
48792;BME280;34587;48.816;9.420;2022-11-15T17:52:02;97770.91;;;12.89;71.45
48792;BME280;34587;48.816;9.420;2022-11-15T17:54:27;97763.94;;;12.89;71.26
48792;BME280;34587;48.816;9.420;2022-11-15T17:56:52;97766.56;;;12.89;71.48
48792;BME280;34587;48.816;9.420;2022-11-15T17:59:18;97774.44;;;12.88;70.97
48792;BME280;34587;48.816;9.420;2022-11-15T18:01:43;97771.81;;;12.88;70.96
48792;BME280;34587;48.816;9.420;2022-11-15T18:04:08;97769.16;;;12.89;71.10
48792;BME280;34587;48.816;9.420;2022-11-15T18:06:34;97772.66;;;12.88;71.25
48792;BME280;34587;48.816;9.420;2022-11-15T18:09:01;97767.41;;;12.90;70.96
48792;BME280;34587;48.816;9.420;2022-11-15T18:11:38;97763.94;;;12.89;71.13
48792;BME280;34587;48.816;9.420;2022-11-15T18:14:06;97758.75;;;12.89;71.08
48792;BME280;34587;48.816;9.420;2022-11-15T18:16:34;97757.91;;;12.89;70.98
48792;BME280;34587;48.816;9.420;2022-11-15T18:19:00;97751.03;;;12.88;70.89
48792;BME280;34587;48.816;9.420;2022-11-15T18:21:28;97745.00;;;12.87;70.76
48792;BME280;34587;48.816;9.420;2022-11-15T18:23:58;97750.03;;;12.90;70.70
48792;BME280;34587;48.816;9.420;2022-11-15T18:26:26;97753.56;;;12.89;70.90
48792;BME280;34587;48.816;9.420;2022-11-15T18:28:54;97750.13;;;12.89;70.63